Data for 06/26/2018

Time Sea-Level Adjusted Pressure Absolute Pressure Temperature Relative Humidity Dew Point   
(mb) (inHg) (mb) (inHg) (C) (F) (%) (C) (F)
00:05 1016 30 845 24.95 18.7 65.6 51 8.4 47.1
00:10 1016 30 846 24.98 18.6 65.6 52 8.7 47.7
00:15 1016 30 846 24.98 18.4 65.1 59 10.3 50.6
00:20 1016 30 845 24.95 17.8 64 62 10.4 50.7
00:25 1016 30 845 24.95 17.4 63.2 66 10.9 51.6
00:30 1016 30 845 24.95 17.2 63 64 10.4 50.7
00:35 1016 30 846 24.98 17.2 62.9 64 10.4 50.6
00:40 1016 30 845 24.95 16.8 62.2 67 10.7 51.2
00:45 1016 30 845 24.95 16.3 61.4 67 10.3 50.6
00:50 1017 30.03 846 24.98 16.4 61.4 67 10.2 50.4
00:55 1017 30.03 846 24.98 16.6 61.8 65 10.1 50.2
01:00 1017 30.03 846 24.98 16.7 62 65 10.2 50.4
01:05 1017 30.03 846 24.98 16.8 62.2 66 10.4 50.7
01:10 1017 30.03 846 24.98 16.7 62.1 66 10.4 50.7
01:15 1017 30.03 846 24.98 16.7 62 65 10.2 50.4
01:20 1017 30.03 846 24.98 16.6 62 66 10.3 50.6
01:25 1017 30.03 846 24.98 16.7 62.1 65 10.1 50.2
01:30 1017 30.03 846 24.98 16.8 62.3 64 10 50
01:35 1017 30.03 846 24.98 16.8 62.3 63 9.8 49.7
01:40 1017 30.03 846 24.98 17.1 62.8 60 9.4 48.8
01:45 1017 30.03 846 24.98 17.5 63.4 60 9.7 49.4
01:50 1017 30.03 846 24.98 17.5 63.5 59 9.5 49.1
01:55 1017 30.03 846 24.98 17.4 63.4 60 9.8 49.6
02:00 1017 30.03 846 24.98 17.3 63.1 60 9.6 49.3
02:05 1017 30.03 846 24.98 17.2 62.9 65 10.6 51.1
02:10 1017 30.03 846 24.98 16.7 62.1 68 10.9 51.6
02:15 1017 30.03 846 24.98 16.4 61.6 66 10.1 50.1
02:20 1017 30.03 846 24.98 16.6 61.8 65 10.1 50.3
02:25 1017 30.03 846 24.98 16.6 61.9 65 10 50
02:30 1017 30.03 846 24.98 16.6 61.9 65 10.1 50.3
02:35 1017 30.03 846 24.98 16.6 61.9 69 10.9 51.5
02:40 1017 30.03 846 24.98 16 60.8 74 11.3 52.4
02:45 1017 30.03 846 24.98 15.6 60.1 71 10.4 50.7
02:50 1017 30.03 846 24.98 15.6 60.1 72 10.5 51
02:55 1017 30.03 846 24.98 15.4 59.7 71 10.3 50.5
03:00 1017 30.03 846 24.98 15.3 59.6 73 10.5 50.9
03:05 1016 30 846 24.98 15.4 59.8 70 10 50
03:10 1016 30 846 24.98 15.7 60.2 67 9.6 49.2
03:15 1016 30 846 24.98 16 60.8 68 10.2 50.3
03:20 1016 30 846 24.98 16 60.8 70 10.6 51
03:25 1016 30 846 24.98 15.8 60.4 71 10.7 51.2
03:30 1016 30 845 24.95 15.6 60 73 10.7 51.3
03:35 1016 30 845 24.95 15.3 59.6 75 10.9 51.5
03:40 1016 30 846 24.98 15.1 59.2 77 11.2 52.1
03:45 1017 30.03 846 24.98 15 58.9 79 11.3 52.4
03:50 1017 30.03 846 24.98 14.8 58.7 79 11.3 52.3
03:55 1017 30.03 846 24.98 14.9 58.8 77 10.9 51.6
04:00 1017 30.03 846 24.98 14.9 58.8 77 10.9 51.7
04:05 1017 30.03 846 24.98 14.7 58.5 78 10.9 51.6
04:10 1017 30.03 846 24.98 14.7 58.4 78 10.9 51.6
04:15 1017 30.03 846 24.98 14.5 58 79 10.9 51.7
04:20 1017 30.03 846 24.98 14.1 57.3 79 10.5 50.9
04:25 1017 30.03 846 24.98 13.9 57 80 10.5 51
04:30 1017 30.03 846 24.98 13.9 57 80 10.6 51.1
04:35 1017 30.03 846 24.98 13.9 57.1 81 10.7 51.2
04:40 1017 30.03 846 24.98 14 57.1 81 10.7 51.3
04:45 1017 30.03 846 24.98 13.9 57.1 81 10.8 51.5
04:50 1017 30.03 847 25.01 13.9 57 82 10.8 51.5
04:55 1017 30.03 846 24.98 13.9 57 82 10.9 51.6
05:00 1017 30.03 846 24.98 13.9 57.1 82 10.9 51.7
05:05 1017 30.03 847 25.01 14 57.2 82 11 51.7
05:10 1017 30.03 847 25.01 14 57.2 81 10.8 51.4
05:15 1017 30.03 847 25.01 14 57.3 79 10.5 50.9
05:20 1017 30.03 847 25.01 14.1 57.3 79 10.5 50.9
05:25 1018 30.06 847 25.01 14.1 57.4 79 10.5 50.9
05:30 1018 30.06 847 25.01 14.1 57.4 77 10.2 50.4
05:35 1018 30.06 847 25.01 14.3 57.7 77 10.3 50.5
05:40 1018 30.06 847 25.01 14.3 57.7 77 10.3 50.5
05:45 1018 30.06 847 25.01 14.3 57.8 76 10.2 50.3
05:50 1018 30.06 847 25.01 14.4 57.8 76 10.3 50.5
05:55 1018 30.06 847 25.01 14.3 57.8 77 10.3 50.6
06:00 1018 30.06 847 25.01 14.3 57.7 77 10.3 50.5
06:05 1018 30.06 847 25.01 14.2 57.6 77 10.3 50.5
06:10 1018 30.06 847 25.01 14.2 57.5 77 10.2 50.4
06:15 1018 30.06 847 25.01 14.2 57.5 77 10.2 50.3
06:20 1018 30.06 847 25.01 14.3 57.7 76 10.1 50.3
06:25 1018 30.06 847 25.01 14.3 57.8 75 10 50
06:30 1018 30.06 847 25.01 14.5 58.2 74 10 49.9
06:35 1018 30.06 847 25.01 14.8 58.6 74 10.2 50.4
06:40 1018 30.06 847 25.01 14.7 58.4 75 10.2 50.4
06:45 1018 30.06 847 25.01 14.6 58.2 74 10 50
06:50 1018 30.06 847 25.01 14.6 58.3 74 10.1 50.2
06:55 1018 30.06 847 25.01 14.5 58.1 75 10.1 50.1
07:00 1018 30.06 847 25.01 14.4 57.9 74 9.9 49.8
07:05 1018 30.06 847 25.01 14.3 57.7 74 9.8 49.6
07:10 1018 30.06 847 25.01 14.2 57.5 72 9.2 48.6
07:15 1018 30.06 847 25.01 14.1 57.4 71 9 48.2
07:20 1018 30.06 847 25.01 14.1 57.4 71 8.9 48.1
07:25 1018 30.06 847 25.01 14 57.1 70 8.6 47.4
07:30 1018 30.06 848 25.04 13.8 56.8 70 8.5 47.3
07:35 1018 30.06 848 25.04 13.9 56.9 70 8.6 47.5
07:40 1018 30.06 848 25.04 13.8 56.9 70 8.4 47.1
07:45 1019 30.09 848 25.04 13.8 56.8 70 8.4 47.2
07:50 1019 30.09 848 25.04 13.8 56.9 70 8.4 47.2
07:55 1019 30.09 848 25.04 13.8 56.8 68 8.1 46.6
08:00 1019 30.09 848 25.04 13.7 56.7 69 8.3 46.9
08:05 1019 30.09 848 25.04 13.8 56.8 68 8.1 46.5
08:10 1019 30.09 848 25.04 13.7 56.7 67 7.9 46.2
08:15 1019 30.09 848 25.04 13.8 56.8 67 7.9 46.2
08:20 1019 30.09 848 25.04 13.8 56.9 66 7.7 45.9
08:25 1019 30.09 848 25.04 14 57.1 66 7.8 46.1
08:30 1019 30.09 848 25.04 14.1 57.4 64 7.4 45.3
08:35 1019 30.09 848 25.04 14.3 57.7 64 7.7 45.8
08:40 1019 30.09 848 25.04 14.2 57.6 62 7.2 44.9
08:45 1019 30.09 848 25.04 14.5 58.1 61 7.1 44.7
08:50 1019 30.09 848 25.04 14.3 57.7 61 7 44.7
08:55 1019 30.09 848 25.04 14.4 57.8 60 6.8 44.3
09:00 1019 30.09 848 25.04 14.7 58.4 59 6.9 44.4
09:05 1019 30.09 848 25.04 14.9 58.9 58 6.9 44.4
09:10 1019 30.09 848 25.04 14.9 58.9 58 6.9 44.4
09:15 1019 30.09 848 25.04 15.4 59.7 55 6.4 43.6
09:20 1019 30.09 848 25.04 15.7 60.3 56 6.9 44.5
09:25 1019 30.09 848 25.04 15.3 59.6 55 6.5 43.7
09:30 1019 30.09 848 25.04 15.7 60.3 54 6.5 43.7
09:35 1019 30.09 848 25.04 15.9 60.7 55 6.9 44.5
09:40 1019 30.09 848 25.04 16.2 61.2 53 6.8 44.3
09:45 1019 30.09 848 25.04 16.9 62.4 50 6.4 43.5
09:50 1019 30.09 848 25.04 17.3 63.1 48 6.3 43.3
09:55 1019 30.09 848 25.04 17.4 63.4 47 6.2 43.1
10:00 1019 30.09 848 25.04 18 64.4 45 5.9 42.6
10:05 1019 30.09 848 25.04 17.7 63.8 46 6 42.8
10:10 1019 30.09 848 25.04 18.1 64.7 45 6.2 43.1
10:15 1019 30.09 848 25.04 17.8 64 48 6.7 44.1
10:20 1019 30.09 848 25.04 18 64.3 45 6 42.9
10:25 1019 30.09 848 25.04 18.4 65.1 47 7 44.5
10:30 1019 30.09 848 25.04 18.1 64.6 47 6.6 43.9
10:35 1019 30.09 848 25.04 17.6 63.6 48 6.6 43.9
10:40 1019 30.09 848 25.04 17.3 63.2 48 6.4 43.5
10:45 1019 30.09 848 25.04 18.2 64.7 45 6.2 43.2
10:50 1019 30.09 848 25.04 18.9 66 42 5.8 42.4
10:55 1019 30.09 848 25.04 19.2 66.5 45 7 44.7
11:00 1019 30.09 848 25.04 18.9 66.1 43 6.1 43.1
11:05 1019 30.09 848 25.04 19.5 67.1 42 6.4 43.5
11:10 1019 30.09 848 25.04 20 67.9 41 6.4 43.6
11:15 1018 30.06 848 25.04 19.8 67.7 42 6.8 44.3
11:20 1018 30.06 848 25.04 20 68 43 7.3 45.1
11:25 1018 30.06 847 25.01 19.9 67.9 42 6.8 44.3
11:30 1018 30.06 847 25.01 19.6 67.3 45 7.6 45.6
11:35 1018 30.06 847 25.01 20 68.1 45 7.8 46.1
11:40 1018 30.06 847 25.01 20.3 68.5 42 7.2 45
11:45 1018 30.06 847 25.01 20.2 68.3 45 7.9 46.3
11:50 1018 30.06 847 25.01 19.2 66.6 47 7.7 45.9
11:55 1018 30.06 847 25.01 20 68 45 7.9 46.1
12:00 1018 30.06 847 25.01 20.3 68.5 44 7.6 45.7
12:05 1018 30.06 847 25.01 20.5 68.8 43 7.6 45.7
12:10 1018 30.06 847 25.01 20.8 69.4 43 7.8 46
12:15 1018 30.06 847 25.01 19.9 67.9 43 7.3 45.1
12:20 1018 30.06 847 25.01 20.6 69.1 42 7.4 45.3
12:25 1018 30.06 847 25.01 21.2 70.1 41 7.6 45.6
12:30 1018 30.06 847 25.01 20.8 69.5 43 7.8 46.1
12:35 1018 30.06 847 25.01 20.9 69.6 42 7.8 46
12:40 1018 30.06 847 25.01 21 69.8 43 8.1 46.5
12:45 1018 30.06 847 25.01 20.7 69.3 41 7.1 44.8
12:50 1018 30.06 847 25.01 21.1 69.9 41 7.6 45.6
12:55 1018 30.06 847 25.01 21.2 70.1 43 8.2 46.7
13:00 1018 30.06 847 25.01 21.3 70.3 40 7.3 45.1
13:05 1017 30.03 847 25.01 21.4 70.4 40 7.5 45.5
13:10 1017 30.03 847 25.01 21.4 70.6 39 7.2 44.9
13:15 1017 30.03 847 25.01 21.2 70.2 40 7.1 44.8
13:20 1017 30.03 847 25.01 21 69.8 41 7.5 45.4
13:25 1017 30.03 847 25.01 21.2 70.2 40 7.3 45.1
13:30 1017 30.03 847 25.01 21.6 70.9 38 7 44.6
13:35 1017 30.03 847 25.01 21.2 70.2 40 7.4 45.3
13:40 1017 30.03 846 24.98 20.7 69.3 40 6.8 44.3
13:45 1017 30.03 847 25.01 21.4 70.4 39 6.9 44.4
13:50 1017 30.03 847 25.01 21.5 70.8 38 6.6 43.9
13:55 1017 30.03 847 25.01 21.9 71.4 36 6.3 43.4
14:00 1017 30.03 846 24.98 22 71.6 36 6.6 43.9
14:05 1017 30.03 846 24.98 22 71.7 38 7.2 45
14:10 1017 30.03 846 24.98 22 71.6 38 7 44.7
14:15 1017 30.03 846 24.98 22 71.5 36 6.5 43.8
14:20 1017 30.03 846 24.98 21.8 71.3 37 6.7 44.1
14:25 1017 30.03 846 24.98 22.4 72.3 34 6 42.7
14:30 1017 30.03 846 24.98 23.1 73.7 34 6.6 43.9
14:35 1017 30.03 846 24.98 22.9 73.2 35 6.6 43.9
14:40 1017 30.03 846 24.98 23.3 74 33 6.3 43.3
14:45 1017 30.03 846 24.98 23.3 74 32 6 42.8
14:50 1017 30.03 846 24.98 22.7 72.9 34 6.2 43.1
14:55 1017 30.03 846 24.98 22.5 72.6 33 5.7 42.3
15:00 1017 30.03 846 24.98 22.8 73.1 33 5.9 42.6
15:05 1017 30.03 846 24.98 22.9 73.2 32 5.6 42.1
15:10 1017 30.03 846 24.98 23.2 73.7 32 5.7 42.3
15:15 1017 30.03 846 24.98 23.1 73.6 32 5.8 42.4
15:20 1017 30.03 846 24.98 22.8 73 32 5.6 42.1
15:25 1017 30.03 846 24.98 23.4 74.1 31 5.3 41.6
15:30 1017 30.03 846 24.98 23.5 74.3 31 5.7 42.3
15:35 1017 30.03 846 24.98 23.8 74.8 30 5.3 41.6
15:40 1017 30.03 846 24.98 24.1 75.3 29 5.4 41.7
15:45 1017 30.03 846 24.98 23.9 75.1 30 5.5 41.8
15:50 1017 30.03 846 24.98 23.8 74.8 30 5.3 41.6
15:55 1017 30.03 846 24.98 23.2 73.7 30 5.1 41.1
16:00 1017 30.03 846 24.98 22.8 73.1 32 5.3 41.5
16:05 1017 30.03 846 24.98 22.9 73.3 31 5 40.9
16:10 1017 30.03 846 24.98 23.5 74.2 32 5.9 42.6
16:15 1017 30.03 846 24.98 23.6 74.6 30 5.4 41.8
16:20 1017 30.03 846 24.98 23.7 74.7 30 5.5 41.8
16:25 1017 30.03 846 24.98 23.6 74.5 31 5.7 42.3
16:30 1017 30.03 846 24.98 23.8 74.8 31 5.9 42.6
16:35 1017 30.03 846 24.98 24.1 75.3 30 5.7 42.2
16:40 1017 30.03 846 24.98 24.4 75.9 29 5.4 41.7
16:45 1017 30.03 846 24.98 24.5 76.2 29 5.6 42
16:50 1017 30.03 846 24.98 24.6 76.2 29 5.6 42.1
16:55 1017 30.03 846 24.98 24.2 75.5 29 5.5 41.9
17:00 1017 30.03 846 24.98 24.1 75.5 29 5.4 41.6
17:05 1017 30.03 846 24.98 24.5 76.1 30 6.1 43
17:10 1017 30.03 846 24.98 24.6 76.3 28 5.2 41.4
17:15 1017 30.03 846 24.98 24.6 76.3 29 5.7 42.3
17:20 1017 30.03 846 24.98 24.5 76.1 29 5.6 42
17:25 1017 30.03 846 24.98 24.5 76.2 29 5.6 42.2
17:30 1017 30.03 846 24.98 24.9 76.8 29 6.1 43
17:35 1017 30.03 846 24.98 24.9 76.8 29 5.7 42.3
17:40 1017 30.03 846 24.98 25.1 77.1 30 6.7 44
17:45 1017 30.03 846 24.98 24.8 76.6 30 6.1 43
17:50 1017 30.03 846 24.98 24.6 76.3 30 6.3 43.4
17:55 1017 30.03 846 24.98 24.1 75.5 31 6.3 43.3
18:00 1017 30.03 846 24.98 24 75.3 31 6.2 43.2
18:05 1017 30.03 846 24.98 24 75.2 32 6.5 43.8
18:10 1017 30.03 846 24.98 24.1 75.3 32 6.6 44
18:15 1017 30.03 846 24.98 23.6 74.4 33 6.7 44
18:20 1017 30.03 846 24.98 23.9 74.9 32 6.3 43.4
18:25 1017 30.03 846 24.98 23.7 74.6 32 6.2 43.1
18:30 1017 30.03 846 24.98 23.8 74.9 30 5.6 42.2
18:35 1017 30.03 846 24.98 24 75.1 31 6 42.7
18:40 1017 30.03 846 24.98 24.1 75.3 30 5.8 42.4
18:45 1017 30.03 846 24.98 24.2 75.5 30 5.7 42.3
18:50 1017 30.03 846 24.98 23.7 74.6 29 4.8 40.7
18:55 1017 30.03 846 24.98 23.2 73.8 30 4.8 40.7
19:00 1017 30.03 846 24.98 22.9 73.2 31 5.1 41.2
19:05 1017 30.03 846 24.98 23.4 74 30 5 41.1
19:10 1017 30.03 846 24.98 23.4 74.2 29 4.7 40.4
19:15 1017 30.03 846 24.98 23.1 73.7 29 4.4 39.9
19:20 1017 30.03 846 24.98 23.3 73.9 28 4 39.2
19:25 1017 30.03 846 24.98 23.4 74.1 25 2.5 36.5
19:30 1017 30.03 847 25.01 23.4 74.1 26 3.2 37.8
19:35 1017 30.03 847 25.01 23.1 73.6 27 3.1 37.5
19:40 1017 30.03 847 25.01 22.8 73.1 27 3.2 37.7
19:45 1017 30.03 847 25.01 22.6 72.6 27 2.9 37.3
19:50 1017 30.03 847 25.01 22.3 72.2 28 3.3 37.9
19:55 1017 30.03 847 25.01 22.2 72 28 2.9 37.3
20:00 1017 30.03 847 25.01 22.2 71.9 28 3.2 37.8
20:05 1018 30.06 847 25.01 21.9 71.4 27 2.5 36.4
20:10 1018 30.06 847 25.01 21.5 70.7 26 1.6 34.9
20:15 1018 30.06 847 25.01 21.2 70.1 28 2.1 35.8
20:20 1018 30.06 847 25.01 21.2 70.1 28 2.2 36
20:25 1018 30.06 847 25.01 21.2 70.1 29 2.5 36.6
20:30 1018 30.06 847 25.01 21.1 69.9 29 2.7 36.9
20:35 1018 30.06 847 25.01 20.9 69.6 30 2.8 37
20:40 1018 30.06 847 25.01 20.6 69.1 30 2.5 36.4
20:45 1018 30.06 847 25.01 20.4 68.7 32 3.1 37.6
20:50 1018 30.06 847 25.01 20.2 68.3 33 3.6 38.4
20:55 1018 30.06 847 25.01 20 68 33 3.6 38.4
21:00 1018 30.06 847 25.01 19.4 66.9 32 2.4 36.2
21:05 1018 30.06 847 25.01 19.1 66.4 32 2.3 36.1
21:10 1018 30.06 847 25.01 18.9 66 35 3.2 37.8
21:15 1018 30.06 847 25.01 18.7 65.7 33 2.4 36.4
21:20 1018 30.06 847 25.01 18.6 65.4 34 2.4 36.2
21:25 1018 30.06 847 25.01 18.4 65.2 35 2.7 36.8
21:30 1018 30.06 848 25.04 18.3 64.9 34 2.5 36.4
21:35 1018 30.06 848 25.04 18.1 64.6 35 2.6 36.6
21:40 1019 30.09 848 25.04 18 64.3 36 2.9 37.1
21:45 1019 30.09 848 25.04 17.8 64.1 42 4.7 40.5
21:50 1019 30.09 848 25.04 17 62.5 45 5.1 41.2
21:55 1019 30.09 848 25.04 16.5 61.8 43 4.1 39.4
22:00 1019 30.09 848 25.04 16.6 61.8 41 3.4 38.2
22:05 1019 30.09 848 25.04 16.7 62.1 41 3.4 38
22:10 1019 30.09 848 25.04 16.8 62.2 41 3.6 38.5
22:15 1019 30.09 848 25.04 16.7 62 40 3.2 37.8
22:20 1019 30.09 848 25.04 16.8 62.2 39 3 37.3
22:25 1019 30.09 848 25.04 16.6 61.9 41 3.3 37.9
22:30 1019 30.09 848 25.04 16.4 61.6 43 3.8 38.9
22:35 1019 30.09 848 25.04 15.9 60.6 49 5.2 41.4
22:40 1019 30.09 849 25.07 15 59.1 49 4.6 40.3
22:45 1019 30.09 849 25.07 14.8 58.6 52 5.1 41.2
22:50 1019 30.09 849 25.07 14.3 57.7 55 5.4 41.6
22:55 1019 30.09 849 25.07 13.9 57 59 6 42.7
23:00 1019 30.09 849 25.07 13.4 56.2 61 6.1 43
23:05 1019 30.09 849 25.07 13.4 56.2 59 5.5 41.9
23:10 1019 30.09 849 25.07 13.7 56.7 57 5.5 42
23:15 1019 30.09 849 25.07 13.8 56.9 57 5.5 41.9
23:20 1019 30.09 849 25.07 13.7 56.7 57 5.5 41.8
23:25 1019 30.09 849 25.07 13.8 56.9 55 4.9 40.9
23:30 1019 30.09 849 25.07 13.8 56.8 57 5.5 42
23:35 1019 30.09 849 25.07 13.4 56 58 5.3 41.6
23:40 1020 30.12 849 25.07 13.3 55.9 61 5.8 42.5
23:45 1020 30.12 849 25.07 13.2 55.7 57 4.9 40.8
23:50 1020 30.12 849 25.07 13.3 56 56 4.9 40.8
23:55 1020 30.12 849 25.07 13.3 56 56 4.7 40.4
24:00 1020 30.12 849 25.07 13.3 55.9 58 5.2 41.3